createdAt,value
2019-06-27T00:01:13.107Z,5.75
2019-06-27T00:03:40.826Z,5.45
2019-06-27T00:06:08.372Z,5.72
2019-06-27T00:08:35.851Z,5.47
2019-06-27T00:11:03.433Z,5.85
2019-06-27T00:13:31.107Z,5.20
2019-06-27T00:15:58.651Z,4.90
2019-06-27T00:18:26.466Z,5.55
2019-06-27T00:20:57.303Z,5.50
2019-06-27T00:23:24.826Z,5.10
2019-06-27T00:25:52.157Z,4.75
2019-06-27T00:28:19.655Z,5.45
2019-06-27T00:30:47.273Z,5.15
2019-06-27T00:33:15.088Z,4.65
2019-06-27T00:35:42.711Z,4.45
2019-06-27T00:38:10.367Z,4.67
2019-06-27T00:40:37.959Z,4.67
2019-06-27T00:43:05.423Z,4.78
2019-06-27T00:45:33.140Z,4.37
2019-06-27T00:48:00.875Z,4.35
2019-06-27T00:50:28.507Z,4.87
2019-06-27T00:52:55.863Z,4.97
2019-06-27T00:55:23.642Z,4.45
2019-06-27T00:57:51.002Z,4.45
2019-06-27T01:00:18.677Z,4.40
2019-06-27T01:02:45.938Z,4.75
2019-06-27T01:05:13.662Z,4.25
2019-06-27T01:07:41.528Z,4.70
2019-06-27T01:10:08.995Z,4.45
2019-06-27T01:12:36.250Z,4.37
2019-06-27T01:15:03.984Z,3.85
2019-06-27T01:17:31.734Z,4.47
2019-06-27T01:19:59.262Z,4.60
2019-06-27T01:22:26.696Z,4.45
2019-06-27T01:24:54.291Z,4.40
2019-06-27T01:27:29.994Z,4.60
2019-06-27T01:29:50.995Z,4.58
2019-06-27T01:32:18.490Z,4.60
2019-06-27T01:34:46.135Z,4.35
2019-06-27T01:37:13.607Z,4.28
2019-06-27T01:39:40.886Z,4.28
2019-06-27T01:42:08.163Z,4.72
2019-06-27T01:45:00.959Z,5.37
2019-06-27T01:47:28.880Z,4.60
2019-06-27T01:49:56.358Z,4.60
2019-06-27T01:52:23.660Z,4.67
2019-06-27T01:54:50.923Z,4.67
2019-06-27T01:57:18.339Z,4.95
2019-06-27T01:59:45.563Z,4.83
2019-06-27T02:02:13.232Z,5.25
2019-06-27T02:04:40.850Z,5.28
2019-06-27T02:07:08.368Z,5.12
2019-06-27T02:09:35.871Z,5.50
2019-06-27T02:12:03.531Z,5.35
2019-06-27T02:14:31.639Z,5.03
2019-06-27T02:16:59.582Z,4.92
2019-06-27T02:19:26.831Z,4.75
2019-06-27T02:21:54.511Z,5.35
2019-06-27T02:24:22.287Z,5.15
2019-06-27T02:26:49.617Z,5.87
2019-06-27T02:29:16.839Z,5.35
2019-06-27T02:31:44.512Z,4.80
2019-06-27T02:34:11.707Z,5.30
2019-06-27T02:36:39.121Z,5.03
2019-06-27T02:39:06.493Z,4.85
2019-06-27T02:41:34.133Z,5.33
2019-06-27T02:44:01.598Z,5.30
2019-06-27T02:46:29.207Z,5.40
2019-06-27T02:48:56.707Z,5.95
2019-06-27T02:51:24.484Z,5.35
2019-06-27T02:53:51.868Z,5.28
2019-06-27T02:56:19.414Z,5.65
2019-06-27T02:58:47.188Z,5.67
2019-06-27T03:01:14.963Z,5.97
2019-06-27T03:03:42.227Z,5.50
2019-06-27T03:06:09.584Z,5.50
2019-06-27T03:08:36.888Z,5.35
2019-06-27T03:11:04.610Z,5.60
2019-06-27T03:13:31.889Z,4.95
2019-06-27T03:15:59.836Z,5.08
2019-06-27T03:18:27.414Z,5.53
2019-06-27T03:20:55.259Z,5.70
2019-06-27T03:23:23.076Z,5.40
2019-06-27T03:25:50.735Z,5.72
2019-06-27T03:28:18.343Z,5.42
2019-06-27T03:30:45.700Z,5.45
2019-06-27T03:33:13.263Z,5.78
2019-06-27T03:35:40.908Z,5.35
2019-06-27T03:38:08.375Z,5.35
2019-06-27T03:40:36.379Z,5.25
2019-06-27T03:43:04.008Z,4.97
2019-06-27T03:45:31.780Z,5.60
2019-06-27T03:47:59.030Z,4.62
2019-06-27T03:50:26.387Z,4.90
2019-06-27T03:52:53.789Z,4.90
2019-06-27T03:55:21.170Z,5.30
2019-06-27T03:57:48.581Z,5.28
2019-06-27T04:00:23.440Z,5.53
2019-06-27T04:02:50.989Z,4.40
2019-06-27T04:05:18.477Z,4.90
2019-06-27T04:07:45.837Z,5.00
2019-06-27T04:10:17.053Z,4.78
2019-06-27T04:12:42.979Z,5.30
2019-06-27T04:15:10.499Z,5.00
2019-06-27T04:17:38.079Z,5.25
2019-06-27T04:20:05.790Z,5.45
2019-06-27T04:22:33.155Z,4.53
2019-06-27T04:25:00.434Z,4.45
2019-06-27T04:27:28.329Z,5.05
2019-06-27T04:29:55.822Z,4.33
2019-06-27T04:32:23.619Z,4.75
2019-06-27T04:34:51.107Z,4.83
2019-06-27T04:37:18.346Z,5.70
2019-06-27T04:39:46.228Z,4.80
2019-06-27T04:42:13.439Z,4.78
2019-06-27T04:44:41.103Z,5.20
2019-06-27T04:47:08.968Z,4.90
2019-06-27T04:49:37.107Z,5.25
2019-06-27T04:52:04.375Z,4.42
2019-06-27T04:54:32.156Z,4.37
2019-06-27T04:56:59.786Z,4.78
2019-06-27T04:59:27.585Z,5.22
2019-06-27T05:01:55.630Z,4.50
2019-06-27T05:04:23.519Z,4.90
2019-06-27T05:06:51.398Z,4.85
2019-06-27T05:09:19.537Z,5.55
2019-06-27T05:11:47.160Z,5.80
2019-06-27T05:14:14.700Z,5.00
2019-06-27T05:16:42.179Z,5.65
2019-06-27T05:19:10.219Z,5.55
2019-06-27T05:21:37.474Z,4.70
2019-06-27T05:24:05.259Z,5.17
2019-06-27T05:26:32.843Z,5.17
2019-06-27T05:29:00.574Z,5.05
2019-06-27T05:31:28.055Z,5.80
2019-06-27T05:33:55.711Z,5.25
2019-06-27T05:36:23.246Z,5.60
2019-06-27T05:38:50.531Z,5.75
2019-06-27T05:41:17.978Z,5.53
2019-06-27T05:43:45.748Z,5.33
2019-06-27T05:46:13.229Z,5.60
2019-06-27T05:48:40.874Z,5.53
2019-06-27T05:51:08.239Z,5.62
2019-06-27T05:53:35.737Z,6.62
2019-06-27T05:56:03.117Z,5.70
2019-06-27T05:58:30.646Z,5.85
2019-06-27T06:00:58.131Z,5.87
2019-06-27T06:03:25.691Z,5.55
2019-06-27T06:05:53.355Z,6.20
2019-06-27T06:08:20.581Z,5.62
2019-06-27T06:10:48.098Z,5.40
2019-06-27T06:13:15.685Z,5.45
2019-06-27T06:15:43.430Z,5.53
2019-06-27T06:18:10.619Z,6.20
2019-06-27T06:20:37.973Z,6.10
2019-06-27T06:23:05.586Z,6.42
2019-06-27T06:25:32.864Z,6.00
2019-06-27T06:28:00.638Z,5.60
2019-06-27T06:30:43.323Z,6.83
2019-06-27T06:32:57.559Z,6.33
2019-06-27T06:35:25.623Z,6.62
2019-06-27T06:37:53.723Z,6.33
2019-06-27T06:40:21.512Z,6.50
2019-06-27T06:42:49.013Z,6.42
2019-06-27T06:45:16.263Z,5.60
2019-06-27T06:47:43.735Z,5.08
2019-06-27T06:50:10.972Z,6.05
2019-06-27T06:52:38.509Z,6.35
2019-06-27T06:55:05.946Z,6.53
2019-06-27T06:57:33.254Z,6.12
2019-06-27T07:00:00.773Z,5.33
2019-06-27T07:02:28.570Z,6.05
2019-06-27T07:04:56.060Z,6.00
2019-06-27T07:07:23.323Z,6.15
2019-06-27T07:09:51.101Z,6.05
2019-06-27T07:12:18.718Z,5.95
2019-06-27T07:14:46.314Z,6.12
2019-06-27T07:17:14.083Z,6.60
2019-06-27T07:19:41.336Z,6.53
2019-06-27T07:22:08.887Z,6.85
2019-06-27T07:24:36.228Z,6.12
2019-06-27T07:27:04.024Z,5.67
2019-06-27T07:29:31.691Z,7.00
2019-06-27T07:31:59.462Z,6.45
2019-06-27T07:34:27.067Z,7.37
2019-06-27T07:36:54.802Z,5.85
2019-06-27T07:39:22.058Z,6.90
2019-06-27T07:41:49.341Z,5.60
2019-06-27T07:44:20.071Z,6.03
2019-06-27T07:46:46.409Z,7.67
2019-06-27T07:49:14.278Z,6.28
2019-06-27T07:51:42.256Z,5.95
2019-06-27T07:54:09.581Z,5.37
2019-06-27T07:56:37.196Z,5.28
2019-06-27T07:59:04.535Z,6.20
2019-06-27T08:01:35.746Z,5.87
2019-06-27T08:04:02.111Z,5.90
2019-06-27T08:06:29.637Z,6.72
2019-06-27T08:08:57.126Z,7.97
2019-06-27T08:11:25.148Z,6.22
2019-06-27T08:13:52.646Z,5.83
2019-06-27T08:16:20.425Z,5.50
2019-06-27T08:18:48.025Z,6.47
2019-06-27T08:21:15.257Z,5.28
2019-06-27T08:23:43.510Z,5.72
2019-06-27T08:26:10.770Z,6.42
2019-06-27T08:28:38.324Z,5.28
2019-06-27T08:31:05.887Z,6.85
2019-06-27T08:33:33.635Z,6.37
2019-06-27T08:36:01.294Z,5.90
2019-06-27T08:38:28.765Z,5.83
2019-06-27T08:40:56.388Z,6.35
2019-06-27T08:43:23.997Z,6.35
2019-06-27T08:45:51.715Z,7.00
2019-06-27T08:48:19.339Z,7.12
2019-06-27T08:50:46.835Z,6.12
2019-06-27T08:53:14.730Z,6.03
2019-06-27T08:55:42.471Z,5.28
2019-06-27T08:58:10.383Z,5.47
2019-06-27T09:00:38.402Z,5.22
2019-06-27T09:03:06.198Z,5.40
2019-06-27T09:05:34.006Z,5.25
2019-06-27T09:08:01.579Z,5.65
2019-06-27T09:10:28.974Z,5.37
2019-06-27T09:12:56.587Z,5.22
2019-06-27T09:15:23.987Z,5.33
2019-06-27T09:17:51.518Z,4.75
2019-06-27T09:20:18.933Z,4.20
2019-06-27T09:22:46.971Z,4.10
2019-06-27T09:25:14.215Z,4.58
2019-06-27T09:27:41.733Z,4.65
2019-06-27T09:30:09.726Z,4.60
2019-06-27T09:32:37.349Z,3.50
2019-06-27T09:35:04.744Z,3.17
2019-06-27T09:37:32.240Z,4.22
2019-06-27T09:39:59.743Z,3.50
2019-06-27T09:42:27.103Z,3.55
2019-06-27T09:44:54.675Z,3.12
2019-06-27T09:47:22.138Z,3.65
2019-06-27T09:49:49.947Z,3.10
2019-06-27T09:52:17.701Z,2.60
2019-06-27T09:54:45.735Z,3.20
2019-06-27T09:57:13.076Z,3.12
2019-06-27T09:59:40.467Z,3.08
2019-06-27T10:02:08.136Z,3.35
2019-06-27T10:04:35.678Z,3.05
2019-06-27T10:07:02.942Z,3.22
2019-06-27T10:09:30.880Z,3.08
2019-06-27T10:11:58.367Z,3.10
2019-06-27T10:14:25.916Z,2.47
2019-06-27T10:16:53.527Z,2.50
2019-06-27T10:19:20.768Z,3.35
2019-06-27T10:21:48.642Z,3.72
2019-06-27T10:24:16.205Z,4.10
2019-06-27T10:26:43.486Z,3.70
2019-06-27T10:29:11.010Z,3.00
2019-06-27T10:31:38.281Z,3.83
2019-06-27T10:34:05.926Z,3.00
2019-06-27T10:36:34.220Z,2.92
2019-06-27T10:39:01.551Z,3.47
2019-06-27T10:41:29.015Z,3.77
2019-06-27T10:43:58.514Z,3.60
2019-06-27T10:46:26.165Z,3.83
2019-06-27T10:48:53.639Z,3.87
2019-06-27T10:51:21.293Z,3.92
2019-06-27T10:53:48.547Z,4.20
2019-06-27T10:56:16.367Z,3.55
2019-06-27T10:58:44.191Z,3.70
2019-06-27T11:01:11.534Z,4.00
2019-06-27T11:03:39.090Z,3.85
2019-06-27T11:06:06.763Z,3.83
2019-06-27T11:08:34.403Z,3.40
2019-06-27T11:11:01.943Z,3.85
2019-06-27T11:13:29.570Z,3.02
2019-06-27T11:15:57.139Z,4.08
2019-06-27T11:18:24.725Z,4.20
2019-06-27T11:20:52.682Z,3.40
2019-06-27T11:23:20.167Z,3.77
2019-06-27T11:25:47.510Z,3.75
2019-06-27T11:28:15.412Z,3.77
2019-06-27T11:30:43.382Z,4.40
2019-06-27T11:33:10.900Z,4.10
2019-06-27T11:35:38.263Z,3.75
2019-06-27T11:38:05.553Z,3.67
2019-06-27T11:40:33.909Z,3.85
2019-06-27T11:43:01.882Z,3.55
2019-06-27T11:45:29.580Z,3.58
2019-06-27T11:47:57.332Z,3.80
2019-06-27T11:50:24.922Z,3.60
2019-06-27T11:52:52.482Z,3.52
2019-06-27T11:55:19.830Z,3.45
2019-06-27T11:57:47.074Z,3.20
2019-06-27T12:00:15.058Z,2.92
2019-06-27T12:02:43.159Z,2.87
2019-06-27T12:05:11.006Z,3.30
2019-06-27T12:07:38.253Z,3.20
2019-06-27T12:10:05.707Z,2.95
2019-06-27T12:12:33.604Z,3.20
2019-06-27T12:15:01.127Z,3.35
2019-06-27T12:17:28.536Z,3.10
2019-06-27T12:19:56.826Z,3.37
2019-06-27T12:22:24.475Z,3.20
2019-06-27T12:24:52.097Z,2.98
2019-06-27T12:27:19.581Z,3.12
2019-06-27T12:29:47.041Z,3.30
2019-06-27T12:32:14.281Z,3.27
2019-06-27T12:34:41.844Z,3.15
2019-06-27T12:37:09.326Z,2.98
2019-06-27T12:39:36.851Z,2.80
2019-06-27T12:42:04.429Z,2.72
2019-06-27T12:44:31.982Z,2.65
2019-06-27T12:46:59.824Z,3.08
2019-06-27T12:49:49.709Z,2.60
2019-06-27T12:51:56.230Z,2.90
2019-06-27T12:54:23.803Z,3.20
2019-06-27T12:56:51.413Z,2.80
2019-06-27T12:59:19.253Z,3.10
2019-06-27T13:01:46.695Z,2.92
2019-06-27T13:04:23.290Z,3.10
2019-06-27T13:06:43.416Z,2.65
2019-06-27T13:09:10.795Z,3.45
2019-06-27T13:11:38.596Z,2.80
2019-06-27T13:14:06.246Z,3.08
2019-06-27T13:16:33.571Z,3.05
2019-06-27T13:19:01.420Z,2.80
2019-06-27T13:21:28.746Z,2.77
2019-06-27T13:23:56.071Z,2.83
2019-06-27T13:26:23.854Z,2.40
2019-06-27T13:28:51.731Z,2.25
2019-06-27T13:31:19.091Z,2.67
2019-06-27T13:33:46.622Z,2.33
2019-06-27T13:36:14.397Z,2.80
2019-06-27T13:38:41.623Z,2.80
2019-06-27T13:41:09.216Z,2.37
2019-06-27T13:43:37.038Z,2.87
2019-06-27T13:46:04.925Z,2.52
2019-06-27T13:48:32.810Z,2.90
2019-06-27T13:51:00.138Z,2.60
2019-06-27T13:53:27.890Z,3.05
2019-06-27T13:55:55.770Z,2.60
2019-06-27T13:58:23.395Z,2.80
2019-06-27T14:00:51.263Z,2.50
2019-06-27T14:03:18.903Z,2.83
2019-06-27T14:05:46.941Z,3.05
2019-06-27T14:08:14.814Z,2.50
2019-06-27T14:10:42.643Z,2.77
2019-06-27T14:13:10.121Z,2.42
2019-06-27T14:15:38.126Z,2.50
2019-06-27T14:18:05.910Z,2.55
2019-06-27T14:20:33.426Z,2.10
2019-06-27T14:23:01.194Z,2.27
2019-06-27T14:25:28.748Z,2.58
2019-06-27T14:27:56.059Z,2.60
2019-06-27T14:30:24.084Z,2.50
2019-06-27T14:32:53.458Z,2.60
2019-06-27T14:35:21.230Z,2.62
2019-06-27T14:37:48.734Z,2.67
2019-06-27T14:40:17.257Z,2.70
2019-06-27T14:42:44.506Z,2.33
2019-06-27T14:45:11.860Z,2.52
2019-06-27T14:47:39.452Z,2.00
2019-06-27T14:50:06.856Z,2.20
2019-06-27T14:52:35.099Z,2.20
2019-06-27T14:55:02.844Z,2.30
2019-06-27T14:57:30.447Z,2.40
2019-06-27T14:59:58.209Z,2.47
2019-06-27T15:02:25.755Z,2.45
2019-06-27T15:04:53.636Z,2.40
2019-06-27T15:07:21.145Z,2.02
2019-06-27T15:09:48.920Z,2.40
2019-06-27T15:12:16.559Z,2.40
2019-06-27T15:14:44.535Z,2.50
2019-06-27T15:17:11.886Z,2.40
2019-06-27T15:19:39.755Z,2.02
2019-06-27T15:22:07.357Z,2.62
2019-06-27T15:24:34.773Z,2.10
2019-06-27T15:27:02.450Z,2.33
2019-06-27T15:29:29.853Z,2.45
2019-06-27T15:31:57.618Z,2.35
2019-06-27T15:34:24.973Z,2.42
2019-06-27T15:36:52.578Z,2.60
2019-06-27T15:39:20.090Z,2.20
2019-06-27T15:41:47.793Z,2.33
2019-06-27T15:44:15.742Z,2.83
2019-06-27T15:46:43.018Z,2.30
2019-06-27T15:49:10.726Z,2.25
2019-06-27T15:51:38.486Z,2.50
2019-06-27T15:54:05.836Z,2.52
2019-06-27T15:56:33.167Z,2.85
2019-06-27T15:59:03.615Z,2.77
2019-06-27T16:01:29.819Z,2.83
2019-06-27T16:03:57.701Z,3.80
2019-06-27T16:06:25.467Z,2.47
2019-06-27T16:08:53.017Z,2.98
2019-06-27T16:11:20.273Z,2.90
2019-06-27T16:13:47.807Z,2.95
2019-06-27T16:16:15.533Z,2.83
2019-06-27T16:18:43.061Z,3.55
2019-06-27T16:21:10.818Z,3.72
2019-06-27T16:23:38.062Z,3.37
2019-06-27T16:26:05.866Z,3.27
2019-06-27T16:28:33.646Z,3.22
2019-06-27T16:31:01.126Z,2.87
2019-06-27T16:33:28.634Z,3.20
2019-06-27T16:35:56.312Z,2.92
2019-06-27T16:38:24.011Z,3.33
2019-06-27T16:40:52.083Z,3.70
2019-06-27T16:43:20.131Z,3.30
2019-06-27T16:45:47.869Z,3.67
2019-06-27T16:48:15.115Z,2.95
2019-06-27T16:50:42.681Z,3.60
2019-06-27T16:53:10.231Z,3.08
2019-06-27T16:55:38.124Z,3.70
2019-06-27T16:58:05.337Z,3.20
2019-06-27T17:00:32.731Z,2.72
2019-06-27T17:03:00.324Z,3.02
2019-06-27T17:05:27.749Z,3.12
2019-06-27T17:07:55.070Z,3.20
2019-06-27T17:10:22.402Z,3.70
2019-06-27T17:12:49.929Z,3.30
2019-06-27T17:15:17.365Z,3.33
2019-06-27T17:17:44.985Z,3.00
2019-06-27T17:20:12.367Z,2.98
2019-06-27T17:22:40.346Z,3.30
2019-06-27T17:25:08.574Z,3.40
2019-06-27T17:27:36.049Z,3.12
2019-06-27T17:30:04.373Z,3.02
2019-06-27T17:32:31.891Z,3.30
2019-06-27T17:34:59.410Z,3.33
2019-06-27T17:37:26.999Z,3.20
2019-06-27T17:39:54.369Z,2.92
2019-06-27T17:42:22.017Z,3.22
2019-06-27T17:44:49.488Z,2.98
2019-06-27T17:47:17.098Z,2.95
2019-06-27T17:49:48.978Z,3.60
2019-06-27T17:52:14.721Z,3.12
2019-06-27T17:54:42.042Z,3.22
2019-06-27T17:57:10.259Z,3.12
2019-06-27T17:59:37.966Z,2.85
2019-06-27T18:02:05.618Z,3.22
2019-06-27T18:04:33.246Z,2.92
2019-06-27T18:07:13.457Z,3.15
2019-06-27T18:09:30.045Z,3.65
2019-06-27T18:11:57.418Z,3.55
2019-06-27T18:14:24.870Z,3.47
2019-06-27T18:16:52.511Z,3.10
2019-06-27T18:19:20.575Z,3.30
2019-06-27T18:21:47.926Z,3.10
2019-06-27T18:24:15.811Z,3.02
2019-06-27T18:26:43.241Z,3.02
2019-06-27T18:29:10.514Z,3.20
2019-06-27T18:31:38.291Z,3.37
2019-06-27T18:34:05.809Z,3.05
2019-06-27T18:36:33.661Z,2.83
2019-06-27T18:39:00.886Z,3.20
2019-06-27T18:41:28.539Z,2.72
2019-06-27T18:43:56.170Z,3.20
2019-06-27T18:46:23.549Z,2.87
2019-06-27T18:48:52.048Z,2.70
2019-06-27T18:51:19.801Z,2.65
2019-06-27T18:53:47.393Z,3.10
2019-06-27T18:56:14.897Z,3.17
2019-06-27T18:58:42.263Z,2.65
2019-06-27T19:01:09.528Z,2.60
2019-06-27T19:03:37.069Z,2.77
2019-06-27T19:06:04.339Z,2.62
2019-06-27T19:08:31.747Z,2.80
2019-06-27T19:10:58.963Z,2.42
2019-06-27T19:13:26.598Z,2.90
2019-06-27T19:15:54.433Z,2.67
2019-06-27T19:18:40.010Z,2.58
2019-06-27T19:21:10.608Z,2.52
2019-06-27T19:23:49.771Z,2.37
2019-06-27T19:26:17.241Z,2.37
2019-06-27T19:28:44.585Z,2.50
2019-06-27T19:31:12.203Z,2.20
2019-06-27T19:33:40.098Z,2.12
2019-06-27T19:36:07.594Z,2.50
2019-06-27T19:38:35.452Z,2.70
2019-06-27T19:41:04.369Z,2.33
2019-06-27T19:43:31.938Z,2.08
2019-06-27T19:45:59.647Z,2.33
2019-06-27T19:48:27.249Z,2.15
2019-06-27T19:50:55.740Z,2.27
2019-06-27T19:53:23.715Z,2.33
2019-06-27T19:55:51.201Z,2.35
2019-06-27T19:58:18.962Z,2.20
2019-06-27T20:00:46.814Z,2.40
2019-06-27T20:03:14.367Z,1.92
2019-06-27T20:05:41.626Z,2.10
2019-06-27T20:08:18.970Z,2.45
2019-06-27T20:10:38.027Z,1.92
2019-06-27T20:13:05.690Z,2.30
2019-06-27T20:15:33.282Z,2.30
2019-06-27T20:18:00.630Z,2.58
2019-06-27T20:20:28.519Z,2.70
2019-06-27T20:22:56.549Z,2.45
2019-06-27T20:25:23.946Z,2.77
2019-06-27T20:27:51.966Z,2.30
2019-06-27T20:30:20.575Z,2.15
2019-06-27T20:32:48.378Z,2.22
2019-06-27T20:35:15.592Z,2.33
2019-06-27T20:37:42.954Z,2.70
2019-06-27T20:40:10.714Z,2.58
2019-06-27T20:42:38.576Z,2.50
2019-06-27T20:45:06.158Z,2.35
2019-06-27T20:47:33.954Z,2.67
2019-06-27T20:50:01.465Z,2.55
2019-06-27T20:52:28.903Z,2.37
2019-06-27T20:54:56.319Z,2.15
2019-06-27T20:57:23.572Z,2.50
2019-06-27T20:59:51.333Z,2.40
2019-06-27T21:02:18.832Z,3.00
2019-06-27T21:04:46.346Z,2.70
2019-06-27T21:07:14.116Z,2.58
2019-06-27T21:09:41.946Z,2.30
2019-06-27T21:12:09.978Z,2.70
2019-06-27T21:14:37.360Z,2.60
2019-06-27T21:17:04.764Z,2.20
2019-06-27T21:19:32.425Z,2.60
2019-06-27T21:21:59.774Z,2.58
2019-06-27T21:24:27.162Z,2.50
2019-06-27T21:26:54.473Z,2.60
2019-06-27T21:29:21.722Z,2.30
2019-06-27T21:31:48.979Z,2.87
2019-06-27T21:34:16.742Z,2.60
2019-06-27T21:36:44.535Z,2.50
2019-06-27T21:39:12.045Z,2.72
2019-06-27T21:41:39.581Z,2.52
2019-06-27T21:44:07.043Z,2.35
2019-06-27T21:46:34.819Z,2.33
2019-06-27T21:49:02.445Z,2.20
2019-06-27T21:51:30.477Z,2.40
2019-06-27T21:53:57.957Z,2.58
2019-06-27T21:56:25.470Z,2.70
2019-06-27T21:58:52.790Z,2.72
2019-06-27T22:01:20.673Z,2.47
2019-06-27T22:03:48.230Z,2.42
2019-06-27T22:06:15.830Z,2.22
2019-06-27T22:08:43.044Z,2.20
2019-06-27T22:11:10.441Z,2.62
2019-06-27T22:13:38.244Z,2.33
2019-06-27T22:16:05.623Z,2.37
2019-06-27T22:18:33.062Z,2.60
2019-06-27T22:21:01.015Z,2.72
2019-06-27T22:23:28.270Z,2.12
2019-06-27T22:25:55.875Z,2.37
2019-06-27T22:28:23.246Z,2.87
2019-06-27T22:30:50.502Z,3.00
2019-06-27T22:33:18.071Z,2.80
2019-06-27T22:35:46.062Z,2.83
2019-06-27T22:38:31.813Z,2.60
2019-06-27T22:41:17.207Z,2.85
2019-06-27T22:44:04.805Z,2.70
2019-06-27T22:46:50.231Z,2.40
2019-06-27T22:49:17.289Z,2.98
2019-06-27T22:52:11.629Z,2.60
2019-06-27T22:54:39.868Z,2.45
2019-06-27T22:57:07.390Z,2.52
2019-06-27T22:59:34.874Z,3.00
2019-06-27T23:02:02.535Z,2.37
2019-06-27T23:04:30.033Z,2.60
2019-06-27T23:06:57.548Z,2.60
2019-06-27T23:09:25.177Z,3.02
2019-06-27T23:11:52.835Z,2.00
2019-06-27T23:14:20.562Z,2.77
2019-06-27T23:16:48.411Z,2.80
2019-06-27T23:19:16.269Z,3.00
2019-06-27T23:21:43.910Z,3.00
2019-06-27T23:24:11.686Z,2.80
2019-06-27T23:26:38.937Z,3.12
2019-06-27T23:29:06.285Z,3.10
2019-06-27T23:31:33.827Z,3.12
2019-06-27T23:34:01.100Z,2.80
2019-06-27T23:36:28.525Z,3.12
2019-06-27T23:38:56.141Z,3.00
2019-06-27T23:41:23.622Z,2.98
2019-06-27T23:43:51.129Z,3.00
2019-06-27T23:46:36.659Z,3.12
2019-06-27T23:49:04.141Z,3.02
2019-06-27T23:51:32.004Z,2.70
2019-06-27T23:53:59.337Z,3.15
2019-06-27T23:56:26.993Z,3.00
2019-06-27T23:58:54.611Z,2.98
